createdAt,value
2018-07-07T00:00:33.945Z,16.76
2018-07-07T00:03:03.301Z,16.82
2018-07-07T00:05:32.700Z,16.83
2018-07-07T00:08:02.017Z,16.78
2018-07-07T00:10:31.343Z,16.76
2018-07-07T00:13:00.691Z,16.80
2018-07-07T00:15:30.021Z,16.77
2018-07-07T00:17:59.396Z,16.75
2018-07-07T00:20:28.773Z,16.76
2018-07-07T00:22:58.085Z,16.78
2018-07-07T00:25:27.453Z,16.75
2018-07-07T00:27:56.820Z,16.72
2018-07-07T00:30:26.171Z,16.67
2018-07-07T00:32:55.817Z,16.68
2018-07-07T00:35:25.150Z,16.66
2018-07-07T00:37:54.792Z,16.76
2018-07-07T00:40:24.180Z,16.71
2018-07-07T00:42:53.474Z,16.69
2018-07-07T00:45:22.905Z,16.70
2018-07-07T00:47:52.232Z,16.70
2018-07-07T00:50:21.534Z,16.63
2018-07-07T00:52:50.872Z,16.53
2018-07-07T00:55:20.152Z,16.54
2018-07-07T00:57:49.481Z,16.59
2018-07-07T01:00:18.865Z,16.56
2018-07-07T01:02:48.182Z,16.49
2018-07-07T01:05:38.138Z,16.48
2018-07-07T01:08:07.486Z,16.47
2018-07-07T01:10:36.798Z,16.45
2018-07-07T01:13:06.158Z,16.48
2018-07-07T01:15:35.493Z,16.50
2018-07-07T01:18:04.813Z,16.46
2018-07-07T01:20:34.582Z,16.46
2018-07-07T01:23:03.897Z,16.44
2018-07-07T01:25:33.253Z,16.39
2018-07-07T01:28:02.601Z,16.38
2018-07-07T01:30:31.957Z,16.33
2018-07-07T01:33:01.308Z,16.33
2018-07-07T01:35:30.649Z,16.37
2018-07-07T01:37:59.990Z,16.33
2018-07-07T01:40:29.366Z,16.27
2018-07-07T01:42:58.685Z,16.25
2018-07-07T01:45:28.016Z,16.26
2018-07-07T01:47:57.354Z,16.25
2018-07-07T01:50:26.739Z,16.27
2018-07-07T01:52:56.151Z,16.23
2018-07-07T01:55:25.466Z,16.19
2018-07-07T01:57:54.804Z,16.13
2018-07-07T02:00:24.238Z,16.07
2018-07-07T02:02:53.683Z,16.05
2018-07-07T02:05:23.061Z,16.08
2018-07-07T02:07:52.564Z,16.03
2018-07-07T02:10:22.022Z,15.99
2018-07-07T02:12:51.338Z,16.09
2018-07-07T02:15:20.729Z,16.06
2018-07-07T02:17:50.165Z,16.00
2018-07-07T02:20:19.565Z,15.94
2018-07-07T02:22:48.929Z,15.97
2018-07-07T02:25:18.249Z,15.98
2018-07-07T02:27:48.105Z,15.98
2018-07-07T02:30:17.585Z,15.92
2018-07-07T02:32:47.006Z,15.89
2018-07-07T02:35:16.405Z,15.90
2018-07-07T02:37:45.813Z,15.88
2018-07-07T02:40:15.146Z,15.84
2018-07-07T02:42:44.549Z,15.91
2018-07-07T02:45:13.934Z,15.85
2018-07-07T02:47:43.334Z,15.87
2018-07-07T02:50:12.718Z,15.86
2018-07-07T02:52:42.134Z,15.87
2018-07-07T02:55:11.483Z,15.88
2018-07-07T02:57:40.886Z,15.85
2018-07-07T03:00:11.233Z,15.87
2018-07-07T03:02:40.576Z,15.82
2018-07-07T03:05:09.994Z,15.84
2018-07-07T03:07:39.392Z,15.82
2018-07-07T03:10:09.088Z,15.83
2018-07-07T03:12:38.470Z,15.84
2018-07-07T03:15:07.955Z,15.84
2018-07-07T03:17:38.885Z,15.80
2018-07-07T03:20:10.185Z,15.84
2018-07-07T03:22:39.554Z,15.77
2018-07-07T03:25:09.318Z,15.81
2018-07-07T03:27:38.707Z,15.84
2018-07-07T03:30:08.474Z,15.82
2018-07-07T03:32:38.183Z,15.82
2018-07-07T03:35:07.622Z,15.81
2018-07-07T03:37:37.521Z,15.85
2018-07-07T03:40:07.159Z,15.82
2018-07-07T03:42:36.521Z,15.83
2018-07-07T03:45:05.954Z,15.79
2018-07-07T03:47:35.311Z,15.83
2018-07-07T03:50:04.669Z,15.79
2018-07-07T03:52:34.022Z,15.88
2018-07-07T03:55:03.975Z,16.02
2018-07-07T03:57:33.313Z,15.92
2018-07-07T04:00:02.794Z,15.96
2018-07-07T04:02:32.127Z,16.01
2018-07-07T04:05:01.490Z,15.94
2018-07-07T04:07:30.812Z,15.96
2018-07-07T04:10:01.112Z,15.92
2018-07-07T04:12:30.188Z,15.95
2018-07-07T04:14:59.553Z,16.10
2018-07-07T04:17:28.913Z,16.21
2018-07-07T04:19:58.299Z,16.26
2018-07-07T04:22:27.600Z,16.08
2018-07-07T04:24:56.965Z,16.01
2018-07-07T04:27:26.329Z,15.95
2018-07-07T04:29:55.929Z,15.96
2018-07-07T04:32:25.319Z,16.00
2018-07-07T04:34:54.702Z,16.08
2018-07-07T04:37:24.057Z,16.07
2018-07-07T04:39:53.432Z,16.04
2018-07-07T04:42:22.861Z,16.11
2018-07-07T04:44:52.445Z,16.21
2018-07-07T04:47:21.921Z,16.36
2018-07-07T04:49:51.329Z,16.33
2018-07-07T04:52:20.853Z,16.25
2018-07-07T04:54:50.229Z,16.25
2018-07-07T04:57:19.600Z,16.28
2018-07-07T04:59:49.000Z,16.30
2018-07-07T05:02:18.365Z,16.40
2018-07-07T05:04:47.845Z,16.33
2018-07-07T05:07:17.208Z,16.33
2018-07-07T05:09:46.570Z,16.35
2018-07-07T05:12:15.931Z,16.35
2018-07-07T05:14:45.380Z,16.45
2018-07-07T05:17:15.033Z,16.43
2018-07-07T05:19:44.399Z,16.49
2018-07-07T05:22:13.746Z,16.56
2018-07-07T05:24:43.087Z,16.64
2018-07-07T05:27:12.450Z,16.68
2018-07-07T05:29:41.597Z,16.74
2018-07-07T05:32:11.156Z,16.89
2018-07-07T05:34:40.464Z,16.91
2018-07-07T05:37:09.956Z,17.01
2018-07-07T05:39:39.306Z,17.06
2018-07-07T05:42:08.813Z,17.13
2018-07-07T05:44:38.205Z,17.17
2018-07-07T05:47:07.653Z,17.16
2018-07-07T05:49:36.979Z,17.28
2018-07-07T05:52:06.392Z,17.40
2018-07-07T05:54:35.765Z,17.40
2018-07-07T05:57:05.147Z,17.51
2018-07-07T05:59:34.513Z,17.52
2018-07-07T06:02:04.027Z,17.52
2018-07-07T06:04:33.374Z,17.50
2018-07-07T06:07:02.741Z,17.55
2018-07-07T06:09:32.128Z,17.55
2018-07-07T06:12:01.576Z,17.62
2018-07-07T06:14:31.113Z,17.50
2018-07-07T06:17:00.446Z,17.50
2018-07-07T06:19:29.862Z,17.60
2018-07-07T06:21:59.294Z,17.60
2018-07-07T06:24:28.673Z,17.69
2018-07-07T06:26:58.091Z,17.76
2018-07-07T06:29:27.461Z,17.92
2018-07-07T06:31:56.844Z,17.82
2018-07-07T06:34:28.537Z,17.90
2018-07-07T06:36:57.868Z,17.92
2018-07-07T06:39:27.266Z,17.96
2018-07-07T06:41:56.638Z,17.92
2018-07-07T06:44:26.015Z,17.96
2018-07-07T06:46:55.383Z,18.13
2018-07-07T06:49:24.819Z,18.16
2018-07-07T06:51:54.289Z,18.21
2018-07-07T06:54:23.753Z,18.20
2018-07-07T06:56:53.188Z,18.27
2018-07-07T06:59:22.582Z,18.29
2018-07-07T07:01:52.034Z,18.34
2018-07-07T07:04:21.606Z,18.35
2018-07-07T07:06:50.982Z,18.32
2018-07-07T07:09:20.387Z,18.34
2018-07-07T07:11:49.909Z,18.38
2018-07-07T07:14:19.323Z,18.41
2018-07-07T07:16:48.805Z,18.42
2018-07-07T07:19:18.175Z,18.55
2018-07-07T07:21:47.562Z,18.62
2018-07-07T07:24:16.907Z,18.61
2018-07-07T07:26:46.311Z,18.62
2018-07-07T07:29:15.694Z,18.74
2018-07-07T07:31:45.102Z,18.77
2018-07-07T07:34:14.574Z,18.68
2018-07-07T07:36:45.713Z,18.52
2018-07-07T07:39:15.275Z,18.55
2018-07-07T07:41:45.082Z,18.66
2018-07-07T07:44:14.447Z,18.73
2018-07-07T07:46:43.854Z,19.01
2018-07-07T07:49:13.581Z,18.88
2018-07-07T07:51:42.936Z,19.26
2018-07-07T07:54:12.307Z,19.29
2018-07-07T07:56:41.718Z,19.21
2018-07-07T07:59:11.194Z,19.25
2018-07-07T08:01:41.322Z,19.31
2018-07-07T08:04:10.863Z,19.45
2018-07-07T08:06:40.341Z,19.62
2018-07-07T08:09:09.822Z,19.58
2018-07-07T08:11:38.956Z,19.68
2018-07-07T08:14:08.313Z,19.68
2018-07-07T08:16:37.726Z,20.16
2018-07-07T08:19:07.510Z,20.10
2018-07-07T08:21:36.928Z,20.04
2018-07-07T08:24:06.344Z,20.15
2018-07-07T08:26:35.734Z,20.20
2018-07-07T08:29:05.115Z,20.27
2018-07-07T08:31:34.253Z,20.46
2018-07-07T08:34:03.620Z,20.43
2018-07-07T08:36:33.149Z,20.42
2018-07-07T08:39:02.378Z,20.56
2018-07-07T08:41:31.752Z,20.52
2018-07-07T08:44:01.101Z,20.45
2018-07-07T08:46:30.452Z,20.57
2018-07-07T08:48:59.951Z,20.60
2018-07-07T08:51:30.221Z,20.66
2018-07-07T08:53:59.582Z,20.88
2018-07-07T08:56:28.950Z,20.91
2018-07-07T08:58:58.358Z,20.92
2018-07-07T09:01:27.810Z,21.21
2018-07-07T09:03:57.215Z,21.23
2018-07-07T09:06:26.670Z,21.38
2018-07-07T09:08:56.122Z,21.45
2018-07-07T09:11:25.506Z,21.35
2018-07-07T09:13:55.430Z,21.51
2018-07-07T09:16:24.790Z,21.78
2018-07-07T09:18:54.426Z,21.78
2018-07-07T09:21:23.758Z,21.86
2018-07-07T09:23:53.116Z,21.97
2018-07-07T09:26:22.495Z,22.08
2018-07-07T09:28:51.921Z,22.12
2018-07-07T09:31:21.344Z,22.17
2018-07-07T09:33:50.753Z,22.38
2018-07-07T09:36:20.389Z,22.24
2018-07-07T09:38:49.802Z,22.06
2018-07-07T09:41:19.174Z,21.82
2018-07-07T09:43:48.582Z,21.84
2018-07-07T09:46:17.973Z,21.75
2018-07-07T09:48:47.352Z,21.82
2018-07-07T09:51:16.881Z,22.03
2018-07-07T09:53:46.243Z,22.21
2018-07-07T09:56:15.651Z,22.44
2018-07-07T09:58:45.013Z,22.45
2018-07-07T10:01:14.410Z,22.77
2018-07-07T10:03:43.815Z,22.85
2018-07-07T10:06:13.180Z,22.84
2018-07-07T10:08:43.226Z,22.84
2018-07-07T10:11:12.670Z,22.89
2018-07-07T10:13:42.109Z,22.99
2018-07-07T10:16:11.457Z,23.05
2018-07-07T10:18:40.897Z,23.06
2018-07-07T10:21:10.273Z,23.14
2018-07-07T10:23:39.650Z,23.18
2018-07-07T10:26:09.049Z,22.80
2018-07-07T10:28:38.474Z,22.83
2018-07-07T10:31:08.140Z,22.51
2018-07-07T10:33:37.523Z,22.39
2018-07-07T10:36:07.345Z,22.50
2018-07-07T10:38:36.717Z,22.58
2018-07-07T10:41:06.146Z,22.39
2018-07-07T10:43:36.041Z,22.29
2018-07-07T10:46:05.485Z,22.25
2018-07-07T10:48:34.833Z,22.13
2018-07-07T10:51:04.153Z,21.98
2018-07-07T10:53:33.492Z,22.01
2018-07-07T10:56:02.884Z,22.18
2018-07-07T10:58:32.238Z,22.38
2018-07-07T11:01:02.060Z,22.77
2018-07-07T11:03:31.473Z,22.76
2018-07-07T11:06:00.800Z,22.93
2018-07-07T11:08:30.154Z,23.01
2018-07-07T11:10:59.545Z,23.01
2018-07-07T11:13:28.886Z,23.06
2018-07-07T11:15:58.322Z,22.84
2018-07-07T11:18:27.653Z,22.63
2018-07-07T11:20:57.860Z,22.60
2018-07-07T11:23:27.221Z,22.40
2018-07-07T11:25:56.547Z,22.32
2018-07-07T11:28:25.893Z,22.26
2018-07-07T11:30:55.231Z,22.19
2018-07-07T11:33:24.869Z,22.29
2018-07-07T11:35:54.397Z,22.84
2018-07-07T11:38:23.757Z,23.08
2018-07-07T11:40:53.279Z,23.11
2018-07-07T11:43:23.434Z,22.88
2018-07-07T11:45:53.059Z,22.91
2018-07-07T11:48:22.694Z,23.15
2018-07-07T11:50:52.052Z,23.36
2018-07-07T11:53:21.450Z,23.54
2018-07-07T11:55:51.216Z,23.68
2018-07-07T11:58:20.951Z,23.87
2018-07-07T12:00:50.395Z,24.02
2018-07-07T12:03:19.773Z,23.82
2018-07-07T12:05:49.118Z,23.41
2018-07-07T12:08:18.575Z,23.10
2018-07-07T12:10:50.970Z,23.10
2018-07-07T12:13:20.390Z,23.23
2018-07-07T12:15:56.470Z,23.29
2018-07-07T12:18:25.868Z,23.37
2018-07-07T12:20:55.368Z,23.61
2018-07-07T12:23:24.790Z,23.70
2018-07-07T12:25:54.287Z,23.90
2018-07-07T12:28:23.639Z,24.03
2018-07-07T12:30:53.054Z,24.18
2018-07-07T12:33:22.458Z,24.24
2018-07-07T12:35:51.846Z,24.38
2018-07-07T12:38:21.287Z,24.52
2018-07-07T12:40:50.754Z,24.36
2018-07-07T12:43:20.755Z,24.09
2018-07-07T12:45:50.141Z,23.89
2018-07-07T12:48:19.475Z,24.04
2018-07-07T12:50:48.843Z,24.16
2018-07-07T12:53:18.205Z,24.23
2018-07-07T12:55:47.665Z,24.41
2018-07-07T12:58:17.058Z,24.37
2018-07-07T13:00:46.370Z,24.09
2018-07-07T13:03:15.774Z,24.34
2018-07-07T13:05:45.123Z,24.37
2018-07-07T13:08:14.493Z,24.34
2018-07-07T13:10:43.959Z,24.42
2018-07-07T13:13:13.347Z,24.29
2018-07-07T13:15:42.701Z,24.22
2018-07-07T13:18:12.150Z,24.35
2018-07-07T13:20:41.548Z,24.38
2018-07-07T13:23:11.050Z,24.52
2018-07-07T13:25:40.445Z,24.68
2018-07-07T13:28:10.169Z,24.68
2018-07-07T13:30:39.873Z,24.87
2018-07-07T13:33:09.348Z,24.93
2018-07-07T13:35:38.709Z,24.99
2018-07-07T13:38:08.084Z,24.99
2018-07-07T13:40:37.489Z,24.97
2018-07-07T13:43:07.687Z,25.04
2018-07-07T13:45:37.067Z,25.19
2018-07-07T13:48:07.896Z,25.24
2018-07-07T13:50:37.363Z,25.17
2018-07-07T13:53:06.801Z,25.24
2018-07-07T13:55:36.502Z,25.26
2018-07-07T13:58:07.041Z,25.38
2018-07-07T14:00:36.477Z,25.37
2018-07-07T14:03:05.905Z,25.33
2018-07-07T14:05:35.274Z,25.22
2018-07-07T14:08:04.341Z,25.04
2018-07-07T14:10:33.793Z,24.88
2018-07-07T14:13:03.178Z,24.91
2018-07-07T14:15:32.617Z,25.07
2018-07-07T14:18:02.008Z,25.09
2018-07-07T14:20:31.973Z,25.19
2018-07-07T14:23:01.393Z,25.13
2018-07-07T14:25:30.795Z,25.25
2018-07-07T14:28:00.153Z,25.32
2018-07-07T14:30:29.514Z,25.34
2018-07-07T14:32:58.857Z,24.87
2018-07-07T14:35:28.283Z,24.71
2018-07-07T14:37:57.725Z,24.58
2018-07-07T14:40:27.102Z,24.47
2018-07-07T14:42:57.441Z,24.55
2018-07-07T14:45:28.954Z,24.64
2018-07-07T14:47:59.674Z,24.71
2018-07-07T14:50:29.233Z,24.78
2018-07-07T14:52:58.653Z,24.73
2018-07-07T14:55:28.611Z,24.79
2018-07-07T14:57:58.051Z,24.82
2018-07-07T15:00:28.319Z,24.88
2018-07-07T15:02:58.281Z,24.96
2018-07-07T15:05:27.674Z,24.84
2018-07-07T15:07:57.081Z,24.73
2018-07-07T15:10:26.503Z,24.67
2018-07-07T15:12:56.255Z,24.68
2018-07-07T15:15:25.756Z,24.68
2018-07-07T15:17:55.161Z,24.62
2018-07-07T15:20:24.561Z,24.69
2018-07-07T15:22:54.013Z,24.54
2018-07-07T15:25:23.441Z,24.45
2018-07-07T15:27:52.871Z,24.37
2018-07-07T15:30:22.315Z,24.32
2018-07-07T15:32:51.781Z,24.22
2018-07-07T15:35:21.455Z,24.09
2018-07-07T15:37:50.833Z,23.95
2018-07-07T15:40:20.193Z,23.89
2018-07-07T15:42:49.547Z,23.94
2018-07-07T15:45:18.947Z,23.82
2018-07-07T15:47:48.685Z,23.69
2018-07-07T15:50:18.039Z,23.67
2018-07-07T15:52:47.439Z,23.59
2018-07-07T15:55:16.817Z,23.61
2018-07-07T15:57:46.193Z,23.58
2018-07-07T16:00:15.666Z,23.52
2018-07-07T16:02:45.048Z,23.62
2018-07-07T16:05:14.456Z,23.63
2018-07-07T16:07:43.801Z,23.56
2018-07-07T16:10:13.189Z,23.52
2018-07-07T16:12:42.608Z,23.44
2018-07-07T16:15:12.041Z,23.43
2018-07-07T16:17:41.409Z,23.35
2018-07-07T16:20:10.906Z,23.37
2018-07-07T16:22:40.279Z,23.26
2018-07-07T16:25:09.622Z,23.33
2018-07-07T16:27:39.024Z,23.27
2018-07-07T16:30:08.470Z,23.41
2018-07-07T16:32:37.875Z,23.22
2018-07-07T16:35:07.296Z,23.12
2018-07-07T16:37:36.832Z,23.17
2018-07-07T16:40:06.215Z,23.13
2018-07-07T16:42:37.841Z,23.07
2018-07-07T16:45:07.255Z,23.01
2018-07-07T16:47:37.710Z,23.22
2018-07-07T16:50:07.255Z,23.05
2018-07-07T16:52:36.733Z,23.03
2018-07-07T16:55:06.141Z,22.97
2018-07-07T16:57:35.909Z,23.03
2018-07-07T17:00:05.522Z,23.15
2018-07-07T17:02:35.024Z,23.07
2018-07-07T17:05:04.438Z,22.96
2018-07-07T17:07:33.860Z,22.84
2018-07-07T17:10:03.904Z,22.98
2018-07-07T17:12:33.283Z,22.87
2018-07-07T17:15:03.276Z,22.91
2018-07-07T17:17:34.269Z,22.90
2018-07-07T17:20:03.655Z,22.77
2018-07-07T17:22:33.065Z,22.69
2018-07-07T17:25:02.476Z,22.64
2018-07-07T17:27:32.045Z,22.97
2018-07-07T17:30:01.517Z,22.78
2018-07-07T17:32:31.970Z,22.67
2018-07-07T17:35:02.426Z,22.63
2018-07-07T17:37:31.855Z,22.56
2018-07-07T17:40:02.591Z,22.52
2018-07-07T17:42:33.408Z,22.51
2018-07-07T17:45:03.211Z,22.51
2018-07-07T17:47:32.753Z,22.45
2018-07-07T17:50:03.349Z,22.47
2018-07-07T17:52:34.816Z,22.50
2018-07-07T17:55:05.585Z,22.52
2018-07-07T17:57:35.493Z,22.60
2018-07-07T18:00:04.995Z,22.54
2018-07-07T18:02:34.351Z,22.43
2018-07-07T18:05:03.951Z,22.37
2018-07-07T18:07:33.438Z,22.31
2018-07-07T18:10:03.023Z,22.26
2018-07-07T18:12:32.742Z,22.20
2018-07-07T18:15:02.148Z,22.17
2018-07-07T18:17:31.571Z,22.14
2018-07-07T18:20:00.928Z,22.09
2018-07-07T18:22:30.189Z,22.06
2018-07-07T18:24:59.633Z,22.01
2018-07-07T18:27:29.065Z,21.94
2018-07-07T18:29:58.429Z,21.94
2018-07-07T18:32:27.891Z,21.90
2018-07-07T18:34:57.795Z,21.85
2018-07-07T18:37:27.202Z,21.83
2018-07-07T18:39:56.571Z,21.87
2018-07-07T18:42:26.138Z,21.81
2018-07-07T18:44:55.722Z,21.75
2018-07-07T18:47:25.747Z,21.72
2018-07-07T18:49:55.229Z,21.67
2018-07-07T18:52:24.649Z,21.61
2018-07-07T18:54:54.353Z,21.54
2018-07-07T18:57:23.846Z,21.49
2018-07-07T18:59:53.250Z,21.36
2018-07-07T19:02:22.754Z,21.28
2018-07-07T19:04:52.139Z,21.23
2018-07-07T19:07:21.517Z,21.15
2018-07-07T19:09:51.289Z,21.09
2018-07-07T19:12:20.681Z,21.03
2018-07-07T19:14:50.162Z,20.97
2018-07-07T19:17:19.597Z,20.93
2018-07-07T19:19:49.111Z,20.86
2018-07-07T19:22:24.132Z,20.80
2018-07-07T19:24:58.859Z,20.74
2018-07-07T19:27:28.369Z,20.66
2018-07-07T19:29:57.685Z,20.63
2018-07-07T19:32:32.271Z,20.59
2018-07-07T19:35:06.842Z,20.57
2018-07-07T19:37:36.421Z,20.52
2018-07-07T19:40:06.020Z,20.49
2018-07-07T19:42:36.171Z,20.45
2018-07-07T19:45:05.838Z,20.42
2018-07-07T19:47:35.270Z,20.39
2018-07-07T19:50:04.806Z,20.34
2018-07-07T19:52:34.746Z,20.28
2018-07-07T19:55:04.155Z,20.25
2018-07-07T19:57:33.681Z,20.24
2018-07-07T20:00:03.150Z,20.22
2018-07-07T20:02:32.590Z,20.19
2018-07-07T20:05:02.008Z,20.14
2018-07-07T20:07:31.504Z,20.09
2018-07-07T20:10:00.921Z,20.07
2018-07-07T20:12:30.413Z,20.02
2018-07-07T20:14:59.835Z,20.02
2018-07-07T20:18:06.286Z,19.97
2018-07-07T20:20:41.874Z,19.96
2018-07-07T20:23:12.497Z,19.93
2018-07-07T20:25:41.905Z,19.91
2018-07-07T20:28:16.593Z,19.93
2018-07-07T20:30:46.043Z,19.89
2018-07-07T20:33:15.379Z,19.88
2018-07-07T20:35:44.811Z,19.86
2018-07-07T20:38:14.152Z,19.88
2018-07-07T20:40:43.548Z,19.93
2018-07-07T20:43:13.027Z,19.98
2018-07-07T20:45:42.393Z,20.04
2018-07-07T20:48:11.902Z,20.07
2018-07-07T20:50:41.255Z,20.09
2018-07-07T20:53:10.613Z,20.10
2018-07-07T20:55:39.987Z,20.11
2018-07-07T20:58:09.350Z,20.14
2018-07-07T21:00:38.744Z,20.17
2018-07-07T21:03:08.199Z,20.14
2018-07-07T21:05:37.573Z,20.13
2018-07-07T21:08:07.061Z,20.13
2018-07-07T21:10:36.406Z,20.07
2018-07-07T21:13:06.051Z,20.05
2018-07-07T21:15:35.511Z,20.03
2018-07-07T21:18:04.861Z,20.04
2018-07-07T21:20:34.180Z,20.04
2018-07-07T21:23:03.622Z,20.04
2018-07-07T21:25:32.989Z,20.09
2018-07-07T21:28:02.374Z,20.08
2018-07-07T21:30:31.734Z,20.07
2018-07-07T21:33:01.103Z,20.06
2018-07-07T21:35:30.494Z,20.06
2018-07-07T21:37:59.943Z,20.08
2018-07-07T21:40:29.362Z,20.03
2018-07-07T21:42:58.753Z,20.05
2018-07-07T21:45:28.332Z,20.05
2018-07-07T21:47:57.725Z,20.03
2018-07-07T21:50:27.212Z,20.03
2018-07-07T21:52:56.659Z,20.00
2018-07-07T21:55:26.123Z,19.97
2018-07-07T21:58:00.895Z,19.97
2018-07-07T22:00:35.401Z,19.94
2018-07-07T22:03:10.105Z,19.94
2018-07-07T22:05:44.761Z,19.91
2018-07-07T22:08:19.295Z,19.88
2018-07-07T22:10:49.146Z,19.82
2018-07-07T22:13:18.506Z,19.77
2018-07-07T22:15:47.913Z,19.80
2018-07-07T22:18:17.323Z,19.79
2018-07-07T22:21:02.261Z,19.73
2018-07-07T22:23:31.765Z,19.67
2018-07-07T22:26:01.283Z,19.70
2018-07-07T22:28:30.849Z,19.63
2018-07-07T22:31:00.249Z,19.52
2018-07-07T22:33:29.957Z,19.58
2018-07-07T22:36:04.603Z,19.50
2018-07-07T22:39:09.574Z,19.47
2018-07-07T22:41:57.027Z,19.52
2018-07-07T22:44:26.391Z,19.49
2018-07-07T22:46:56.140Z,19.47
2018-07-07T22:49:26.506Z,19.40
2018-07-07T22:51:56.035Z,19.37
2018-07-07T22:54:25.453Z,19.36
2018-07-07T22:56:54.854Z,19.34
2018-07-07T22:59:24.298Z,19.22
2018-07-07T23:01:53.675Z,19.16
2018-07-07T23:04:23.038Z,19.10
2018-07-07T23:06:52.418Z,19.13
2018-07-07T23:09:21.792Z,19.10
2018-07-07T23:11:51.182Z,19.02
2018-07-07T23:14:21.127Z,19.03
2018-07-07T23:16:50.471Z,18.91
2018-07-07T23:19:19.898Z,18.87
2018-07-07T23:21:49.260Z,18.80
2018-07-07T23:24:19.007Z,18.79
2018-07-07T23:26:48.365Z,18.73
2018-07-07T23:29:17.427Z,18.74
2018-07-07T23:31:47.121Z,18.71
2018-07-07T23:34:16.630Z,18.72
2018-07-07T23:36:45.814Z,18.65
2018-07-07T23:39:15.221Z,18.69
2018-07-07T23:41:44.850Z,18.65
2018-07-07T23:44:14.233Z,18.58
2018-07-07T23:46:43.635Z,18.62
2018-07-07T23:49:12.937Z,18.63
2018-07-07T23:51:42.325Z,18.61
2018-07-07T23:54:11.685Z,18.64
2018-07-07T23:56:41.048Z,18.58
2018-07-07T23:59:10.108Z,18.63
